sensor_id;sensor_type;location;lat;lon;timestamp;pressure;altitude;pressure_sealevel;temperature;humidity
35716;BME280;21840;44.920;8.616;2023-03-23T00:01:18;100332.13;;;17.67;45.57
35716;BME280;21840;44.920;8.616;2023-03-23T00:03:51;100335.69;;;17.74;45.29
35716;BME280;21840;44.920;8.616;2023-03-23T00:06:18;100330.22;;;17.61;45.45
35716;BME280;21840;44.920;8.616;2023-03-23T00:08:46;100330.06;;;17.77;45.09
35716;BME280;21840;44.920;8.616;2023-03-23T00:11:18;100325.91;;;17.60;45.36
35716;BME280;21840;44.920;8.616;2023-03-23T00:13:46;100330.75;;;17.56;45.54
35716;BME280;21840;44.920;8.616;2023-03-23T00:16:13;100327.72;;;17.59;45.24
35716;BME280;21840;44.920;8.616;2023-03-23T00:18:50;100320.41;;;17.61;45.28
35716;BME280;21840;44.920;8.616;2023-03-23T00:21:20;100315.75;;;17.63;45.38
35716;BME280;21840;44.920;8.616;2023-03-23T00:23:45;100320.78;;;17.58;45.35
35716;BME280;21840;44.920;8.616;2023-03-23T00:26:12;100315.56;;;17.65;45.22
35716;BME280;21840;44.920;8.616;2023-03-23T00:28:37;100316.09;;;17.60;45.25
35716;BME280;21840;44.920;8.616;2023-03-23T00:31:06;100316.38;;;17.65;45.35
35716;BME280;21840;44.920;8.616;2023-03-23T00:33:36;100318.28;;;17.57;45.28
35716;BME280;21840;44.920;8.616;2023-03-23T00:36:10;100320.22;;;17.48;45.64
35716;BME280;21840;44.920;8.616;2023-03-23T00:38:37;100315.59;;;17.42;45.85
35716;BME280;21840;44.920;8.616;2023-03-23T00:41:04;100323.50;;;17.35;45.78
35716;BME280;21840;44.920;8.616;2023-03-23T00:43:30;100313.22;;;17.32;45.82
35716;BME280;21840;44.920;8.616;2023-03-23T00:45:57;100323.81;;;17.17;46.09
35716;BME280;21840;44.920;8.616;2023-03-23T00:48:27;100318.31;;;17.19;46.09
35716;BME280;21840;44.920;8.616;2023-03-23T00:50:53;100312.34;;;17.17;46.19
35716;BME280;21840;44.920;8.616;2023-03-23T00:53:20;100313.22;;;17.32;45.78
35716;BME280;21840;44.920;8.616;2023-03-23T00:55:47;100313.53;;;17.37;45.58
35716;BME280;21840;44.920;8.616;2023-03-23T00:58:13;100307.28;;;17.30;45.76
35716;BME280;21840;44.920;8.616;2023-03-23T01:00:40;100302.41;;;17.34;45.81
35716;BME280;21840;44.920;8.616;2023-03-23T01:03:06;100305.56;;;17.14;46.10
35716;BME280;21840;44.920;8.616;2023-03-23T01:05:36;100295.97;;;17.13;46.09
35716;BME280;21840;44.920;8.616;2023-03-23T01:08:03;100301.41;;;17.20;45.82
35716;BME280;21840;44.920;8.616;2023-03-23T01:10:29;100296.00;;;17.28;45.84
35716;BME280;21840;44.920;8.616;2023-03-23T01:13:00;100294.63;;;17.32;45.63
35716;BME280;21840;44.920;8.616;2023-03-23T01:15:27;100289.03;;;17.27;45.53
35716;BME280;21840;44.920;8.616;2023-03-23T01:17:53;100291.69;;;17.27;45.64
35716;BME280;21840;44.920;8.616;2023-03-23T01:20:19;100286.06;;;17.30;45.61
35716;BME280;21840;44.920;8.616;2023-03-23T01:22:44;100292.53;;;17.28;45.69
35716;BME280;21840;44.920;8.616;2023-03-23T01:25:11;100291.69;;;17.27;45.80
35716;BME280;21840;44.920;8.616;2023-03-23T01:27:38;100292.78;;;17.18;45.73
35716;BME280;21840;44.920;8.616;2023-03-23T01:30:06;100284.50;;;17.36;45.38
35716;BME280;21840;44.920;8.616;2023-03-23T01:32:32;100283.94;;;17.25;45.57
35716;BME280;21840;44.920;8.616;2023-03-23T01:34:58;100286.06;;;17.30;45.54
35716;BME280;21840;44.920;8.616;2023-03-23T01:37:24;100280.19;;;17.20;45.60
35716;BME280;21840;44.920;8.616;2023-03-23T01:39:53;100281.41;;;17.09;45.88
35716;BME280;21840;44.920;8.616;2023-03-23T01:42:31;100277.19;;;17.00;46.13
35716;BME280;21840;44.920;8.616;2023-03-23T01:51:17;100273.00;;;17.06;45.97
35716;BME280;21840;44.920;8.616;2023-03-23T01:56:22;100276.31;;;17.08;45.87
35716;BME280;21840;44.920;8.616;2023-03-23T01:58:52;100270.66;;;16.88;46.38
35716;BME280;21840;44.920;8.616;2023-03-23T02:01:19;100267.44;;;16.92;46.21
35716;BME280;21840;44.920;8.616;2023-03-23T02:03:47;100260.38;;;17.08;45.89
35716;BME280;21840;44.920;8.616;2023-03-23T02:06:14;100257.50;;;16.94;46.29
35716;BME280;21840;44.920;8.616;2023-03-23T02:08:58;100260.81;;;16.96;46.15
35716;BME280;21840;44.920;8.616;2023-03-23T02:11:24;100255.50;;;16.96;46.43
35716;BME280;21840;44.920;8.616;2023-03-23T02:13:49;100265.13;;;16.97;46.04
35716;BME280;21840;44.920;8.616;2023-03-23T02:16:37;100255.94;;;16.85;46.27
35716;BME280;21840;44.920;8.616;2023-03-23T02:30:55;100256.97;;;16.76;46.53
35716;BME280;21840;44.920;8.616;2023-03-23T02:36:30;100250.63;;;16.85;46.39
35716;BME280;21840;44.920;8.616;2023-03-23T02:39:12;100254.97;;;17.01;46.06
35716;BME280;21840;44.920;8.616;2023-03-23T02:41:51;100256.88;;;17.07;45.80
35716;BME280;21840;44.920;8.616;2023-03-23T02:44:19;100261.28;;;17.00;45.95
35716;BME280;21840;44.920;8.616;2023-03-23T02:46:45;100268.06;;;17.02;46.13
35716;BME280;21840;44.920;8.616;2023-03-23T02:49:13;100254.84;;;16.94;46.27
35716;BME280;21840;44.920;8.616;2023-03-23T02:51:42;100259.63;;;16.99;46.06
35716;BME280;21840;44.920;8.616;2023-03-23T02:54:11;100261.84;;;16.87;46.51
35716;BME280;21840;44.920;8.616;2023-03-23T02:56:38;100266.63;;;16.92;46.39
35716;BME280;21840;44.920;8.616;2023-03-23T02:59:11;100263.88;;;16.85;46.39
35716;BME280;21840;44.920;8.616;2023-03-23T03:04:06;100266.84;;;16.90;46.36
35716;BME280;21840;44.920;8.616;2023-03-23T03:09:24;100256.78;;;16.77;46.56
35716;BME280;21840;44.920;8.616;2023-03-23T03:11:59;100262.94;;;16.78;46.51
35716;BME280;21840;44.920;8.616;2023-03-23T03:14:31;100267.72;;;16.83;46.43
35716;BME280;21840;44.920;8.616;2023-03-23T03:17:20;100267.25;;;16.79;46.38
35716;BME280;21840;44.920;8.616;2023-03-23T03:19:52;100267.63;;;16.68;46.67
35716;BME280;21840;44.920;8.616;2023-03-23T03:22:21;100262.50;;;16.66;46.69
35716;BME280;21840;44.920;8.616;2023-03-23T03:24:47;100274.25;;;16.17;47.45
35716;BME280;21840;44.920;8.616;2023-03-23T03:27:17;100278.91;;;16.38;47.37
35716;BME280;21840;44.920;8.616;2023-03-23T03:29:55;100279.44;;;16.57;47.26
35716;BME280;21840;44.920;8.616;2023-03-23T03:32:31;100282.53;;;16.69;46.96
35716;BME280;21840;44.920;8.616;2023-03-23T03:35:01;100284.88;;;16.64;47.11
35716;BME280;21840;44.920;8.616;2023-03-23T03:37:34;100279.22;;;16.67;47.06
35716;BME280;21840;44.920;8.616;2023-03-23T03:40:08;100276.63;;;16.58;47.46
35716;BME280;21840;44.920;8.616;2023-03-23T03:42:39;100282.22;;;16.64;47.54
35716;BME280;21840;44.920;8.616;2023-03-23T03:45:07;100277.31;;;16.29;48.34
35716;BME280;21840;44.920;8.616;2023-03-23T03:47:33;100284.28;;;15.91;49.42
35716;BME280;21840;44.920;8.616;2023-03-23T03:49:59;100286.22;;;15.33;50.38
35716;BME280;21840;44.920;8.616;2023-03-23T03:52:24;100287.13;;;15.65;49.33
35716;BME280;21840;44.920;8.616;2023-03-23T03:54:50;100284.16;;;15.68;48.82
35716;BME280;21840;44.920;8.616;2023-03-23T03:57:16;100281.97;;;15.88;48.11
35716;BME280;21840;44.920;8.616;2023-03-23T03:59:57;100285.66;;;15.79;48.31
35716;BME280;21840;44.920;8.616;2023-03-23T04:02:45;100289.38;;;15.92;48.03
35716;BME280;21840;44.920;8.616;2023-03-23T04:05:23;100289.22;;;15.94;48.08
35716;BME280;21840;44.920;8.616;2023-03-23T04:07:49;100286.88;;;15.99;47.86
35716;BME280;21840;44.920;8.616;2023-03-23T04:10:19;100289.38;;;15.92;47.95
35716;BME280;21840;44.920;8.616;2023-03-23T04:12:50;100290.25;;;15.93;48.01
35716;BME280;21840;44.920;8.616;2023-03-23T04:15:33;100284.19;;;15.51;48.88
35716;BME280;21840;44.920;8.616;2023-03-23T04:17:59;100281.41;;;15.53;48.87
35716;BME280;21840;44.920;8.616;2023-03-23T04:20:26;100287.66;;;15.60;48.88
35716;BME280;21840;44.920;8.616;2023-03-23T04:22:52;100291.78;;;15.63;48.83
35716;BME280;21840;44.920;8.616;2023-03-23T04:25:21;100290.00;;;15.55;49.02
35716;BME280;21840;44.920;8.616;2023-03-23T04:27:50;100299.91;;;15.61;48.89
35716;BME280;21840;44.920;8.616;2023-03-23T04:30:24;100300.13;;;15.19;49.80
35716;BME280;21840;44.920;8.616;2023-03-23T04:33:07;100306.09;;;15.13;50.10
35716;BME280;21840;44.920;8.616;2023-03-23T04:35:33;100303.91;;;14.92;50.25
35716;BME280;21840;44.920;8.616;2023-03-23T04:38:08;100310.53;;;15.20;49.35
35716;BME280;21840;44.920;8.616;2023-03-23T04:40:36;100316.97;;;15.09;49.33
35716;BME280;21840;44.920;8.616;2023-03-23T04:43:12;100316.66;;;14.88;49.87
35716;BME280;21840;44.920;8.616;2023-03-23T04:45:59;100319.41;;;14.70;50.03
35716;BME280;21840;44.920;8.616;2023-03-23T04:48:29;100312.19;;;14.80;50.00
35716;BME280;21840;44.920;8.616;2023-03-23T04:51:06;100306.06;;;14.88;49.74
35716;BME280;21840;44.920;8.616;2023-03-23T04:53:32;100310.88;;;15.01;49.45
35716;BME280;21840;44.920;8.616;2023-03-23T04:55:59;100304.09;;;15.23;49.03
35716;BME280;21840;44.920;8.616;2023-03-23T04:58:30;100308.22;;;15.25;48.84
35716;BME280;21840;44.920;8.616;2023-03-23T05:01:17;100308.84;;;15.44;48.65
35716;BME280;21840;44.920;8.616;2023-03-23T05:04:00;100312.19;;;15.38;48.94
35716;BME280;21840;44.920;8.616;2023-03-23T05:06:27;100308.38;;;15.40;49.01
35716;BME280;21840;44.920;8.616;2023-03-23T05:08:58;100310.50;;;15.37;49.50
35716;BME280;21840;44.920;8.616;2023-03-23T05:11:24;100301.41;;;15.39;49.21
35716;BME280;21840;44.920;8.616;2023-03-23T05:13:49;100306.19;;;15.52;48.89
35716;BME280;21840;44.920;8.616;2023-03-23T05:16:15;100309.22;;;15.08;49.98
35716;BME280;21840;44.920;8.616;2023-03-23T05:18:42;100311.53;;;15.36;49.41
35716;BME280;21840;44.920;8.616;2023-03-23T05:21:10;100307.56;;;15.07;49.79
35716;BME280;21840;44.920;8.616;2023-03-23T05:23:40;100302.91;;;15.17;49.89
35716;BME280;21840;44.920;8.616;2023-03-23T05:26:17;100298.75;;;15.47;49.38
35716;BME280;21840;44.920;8.616;2023-03-23T05:28:43;100303.72;;;15.42;49.38
35716;BME280;21840;44.920;8.616;2023-03-23T05:31:17;100295.31;;;15.39;49.28
35716;BME280;21840;44.920;8.616;2023-03-23T05:33:43;100291.84;;;15.14;50.00
35716;BME280;21840;44.920;8.616;2023-03-23T05:36:29;100284.59;;;15.16;50.19
35716;BME280;21840;44.920;8.616;2023-03-23T05:39:06;100296.44;;;15.61;48.94
35716;BME280;21840;44.920;8.616;2023-03-23T05:41:58;100290.34;;;15.36;49.70
35716;BME280;21840;44.920;8.616;2023-03-23T05:44:27;100307.91;;;15.20;50.37
35716;BME280;21840;44.920;8.616;2023-03-23T05:46:57;100308.84;;;15.60;50.10
35716;BME280;21840;44.920;8.616;2023-03-23T05:49:22;100307.34;;;15.58;49.96
35716;BME280;21840;44.920;8.616;2023-03-23T05:51:49;100315.28;;;15.58;49.55
35716;BME280;21840;44.920;8.616;2023-03-23T05:54:16;100318.75;;;15.66;49.29
35716;BME280;21840;44.920;8.616;2023-03-23T05:56:44;100322.78;;;15.21;50.08
35716;BME280;21840;44.920;8.616;2023-03-23T05:59:23;100323.59;;;15.22;49.63
35716;BME280;21840;44.920;8.616;2023-03-23T06:01:52;100329.16;;;15.68;48.63
35716;BME280;21840;44.920;8.616;2023-03-23T06:04:20;100333.97;;;15.81;48.47
35716;BME280;21840;44.920;8.616;2023-03-23T06:07:01;100332.66;;;15.52;49.17
35716;BME280;21840;44.920;8.616;2023-03-23T06:09:27;100341.41;;;15.69;48.88
35716;BME280;21840;44.920;8.616;2023-03-23T06:12:15;100336.66;;;15.48;49.79
35716;BME280;21840;44.920;8.616;2023-03-23T06:14:51;100336.91;;;15.94;48.91
35716;BME280;21840;44.920;8.616;2023-03-23T06:17:22;100345.41;;;15.73;49.14
35716;BME280;21840;44.920;8.616;2023-03-23T06:19:51;100336.25;;;15.92;48.94
35716;BME280;21840;44.920;8.616;2023-03-23T06:22:17;100337.94;;;15.77;49.44
35716;BME280;21840;44.920;8.616;2023-03-23T06:25:01;100334.47;;;15.60;49.73
35716;BME280;21840;44.920;8.616;2023-03-23T06:27:35;100329.34;;;15.50;50.16
35716;BME280;21840;44.920;8.616;2023-03-23T06:30:03;100336.97;;;15.45;50.29
35716;BME280;21840;44.920;8.616;2023-03-23T06:32:31;100332.78;;;15.91;49.08
35716;BME280;21840;44.920;8.616;2023-03-23T06:34:57;100330.44;;;16.36;47.90
35716;BME280;21840;44.920;8.616;2023-03-23T06:37:48;100332.03;;;16.14;48.25
35716;BME280;21840;44.920;8.616;2023-03-23T06:40:25;100330.47;;;16.59;47.31
35716;BME280;21840;44.920;8.616;2023-03-23T06:42:56;100336.75;;;16.35;47.84
35716;BME280;21840;44.920;8.616;2023-03-23T06:45:31;100328.94;;;16.65;47.06
35716;BME280;21840;44.920;8.616;2023-03-23T06:48:22;100330.81;;;16.87;47.36
35716;BME280;21840;44.920;8.616;2023-03-23T06:50:48;100335.94;;;17.12;46.86
35716;BME280;21840;44.920;8.616;2023-03-23T06:53:16;100338.66;;;17.27;46.68
35716;BME280;21840;44.920;8.616;2023-03-23T06:55:43;100340.41;;;17.34;46.75
35716;BME280;21840;44.920;8.616;2023-03-23T06:58:09;100336.88;;;17.57;46.21
35716;BME280;21840;44.920;8.616;2023-03-23T07:00:35;100342.38;;;17.55;46.29
35716;BME280;21840;44.920;8.616;2023-03-23T07:03:01;100342.66;;;17.60;46.09
35716;BME280;21840;44.920;8.616;2023-03-23T07:05:26;100355.53;;;17.86;45.85
35716;BME280;21840;44.920;8.616;2023-03-23T07:07:52;100363.88;;;17.83;45.81
35716;BME280;21840;44.920;8.616;2023-03-23T07:10:30;100360.13;;;17.93;45.71
35716;BME280;21840;44.920;8.616;2023-03-23T07:12:57;100363.97;;;18.05;45.63
35716;BME280;21840;44.920;8.616;2023-03-23T07:15:24;100369.47;;;18.18;45.23
35716;BME280;21840;44.920;8.616;2023-03-23T07:17:51;100364.16;;;18.18;45.49
35716;BME280;21840;44.920;8.616;2023-03-23T07:20:25;100369.63;;;18.31;45.16
35716;BME280;21840;44.920;8.616;2023-03-23T07:22:50;100372.28;;;18.31;45.32
35716;BME280;21840;44.920;8.616;2023-03-23T07:25:27;100366.63;;;18.35;45.13
35716;BME280;21840;44.920;8.616;2023-03-23T07:27:54;100381.00;;;18.40;44.97
35716;BME280;21840;44.920;8.616;2023-03-23T07:30:20;100391.63;;;18.40;44.97
35716;BME280;21840;44.920;8.616;2023-03-23T07:32:46;100388.81;;;17.97;45.98
35716;BME280;21840;44.920;8.616;2023-03-23T07:35:12;100383.28;;;18.43;45.24
35716;BME280;21840;44.920;8.616;2023-03-23T07:37:56;100383.41;;;18.20;45.55
35716;BME280;21840;44.920;8.616;2023-03-23T07:40:22;100395.66;;;18.51;45.02
35716;BME280;21840;44.920;8.616;2023-03-23T07:42:56;100390.88;;;18.31;44.85
35716;BME280;21840;44.920;8.616;2023-03-23T07:45:38;100383.03;;;17.94;45.66
35716;BME280;21840;44.920;8.616;2023-03-23T07:48:05;100392.63;;;18.24;44.98
35716;BME280;21840;44.920;8.616;2023-03-23T07:50:31;100389.69;;;18.34;44.73
35716;BME280;21840;44.920;8.616;2023-03-23T07:52:58;100391.75;;;18.68;44.09
35716;BME280;21840;44.920;8.616;2023-03-23T07:55:27;100392.09;;;18.95;43.67
35716;BME280;21840;44.920;8.616;2023-03-23T07:58:03;100405.13;;;18.90;43.81
35716;BME280;21840;44.920;8.616;2023-03-23T08:00:29;100408.91;;;18.81;44.07
35716;BME280;21840;44.920;8.616;2023-03-23T08:02:56;100413.28;;;18.88;44.05
35716;BME280;21840;44.920;8.616;2023-03-23T08:05:45;100418.06;;;19.36;43.37
35716;BME280;21840;44.920;8.616;2023-03-23T08:08:13;100421.19;;;19.39;43.58
35716;BME280;21840;44.920;8.616;2023-03-23T08:10:59;100416.88;;;19.88;42.27
35716;BME280;21840;44.920;8.616;2023-03-23T08:13:52;100416.00;;;20.09;41.90
35716;BME280;21840;44.920;8.616;2023-03-23T08:16:41;100416.00;;;20.51;41.20
35716;BME280;21840;44.920;8.616;2023-03-23T08:19:27;100427.91;;;20.13;41.60
35716;BME280;21840;44.920;8.616;2023-03-23T08:22:11;100427.63;;;20.30;41.53
35716;BME280;21840;44.920;8.616;2023-03-23T08:24:54;100422.78;;;20.53;41.07
35716;BME280;21840;44.920;8.616;2023-03-23T08:27:29;100417.16;;;20.70;40.70
35716;BME280;21840;44.920;8.616;2023-03-23T08:30:30;100428.19;;;20.60;40.89
35716;BME280;21840;44.920;8.616;2023-03-23T08:33:27;100435.03;;;19.99;42.40
35716;BME280;21840;44.920;8.616;2023-03-23T08:36:09;100431.03;;;20.17;42.57
35716;BME280;21840;44.920;8.616;2023-03-23T08:38:53;100427.34;;;20.18;42.42
35716;BME280;21840;44.920;8.616;2023-03-23T08:41:35;100428.66;;;20.35;42.35
35716;BME280;21840;44.920;8.616;2023-03-23T08:44:32;100431.72;;;20.32;42.37
35716;BME280;21840;44.920;8.616;2023-03-23T08:47:14;100429.09;;;20.04;42.79
35716;BME280;21840;44.920;8.616;2023-03-23T08:50:12;100427.28;;;20.11;42.59
35716;BME280;21840;44.920;8.616;2023-03-23T08:52:53;100419.97;;;19.92;43.32
35716;BME280;21840;44.920;8.616;2023-03-23T08:55:36;100425.81;;;19.52;43.79
35716;BME280;21840;44.920;8.616;2023-03-23T08:58:19;100434.03;;;19.79;43.59
35716;BME280;21840;44.920;8.616;2023-03-23T09:01:16;100424.09;;;19.94;43.27
35716;BME280;21840;44.920;8.616;2023-03-23T09:03:42;100423.63;;;19.84;43.49
35716;BME280;21840;44.920;8.616;2023-03-23T09:06:26;100423.56;;;20.06;43.07
35716;BME280;21840;44.920;8.616;2023-03-23T09:08:53;100423.03;;;20.17;42.40
35716;BME280;21840;44.920;8.616;2023-03-23T09:11:20;100427.69;;;20.08;42.45
35716;BME280;21840;44.920;8.616;2023-03-23T09:13:46;100427.28;;;20.46;41.94
35716;BME280;21840;44.920;8.616;2023-03-23T09:16:11;100422.09;;;20.38;42.00
35716;BME280;21840;44.920;8.616;2023-03-23T09:18:36;100412.19;;;20.60;41.27
35716;BME280;21840;44.920;8.616;2023-03-23T09:21:02;100417.22;;;20.96;41.07
35716;BME280;21840;44.920;8.616;2023-03-23T09:23:29;100412.47;;;20.92;40.94
35716;BME280;21840;44.920;8.616;2023-03-23T09:25:55;100409.44;;;21.08;40.57
35716;BME280;21840;44.920;8.616;2023-03-23T09:28:20;100411.53;;;21.32;40.05
35716;BME280;21840;44.920;8.616;2023-03-23T09:30:47;100408.47;;;21.36;40.19
35716;BME280;21840;44.920;8.616;2023-03-23T09:33:13;100409.72;;;21.46;40.34
35716;BME280;21840;44.920;8.616;2023-03-23T09:35:39;100410.75;;;21.59;40.28
35716;BME280;21840;44.920;8.616;2023-03-23T09:38:08;100415.91;;;21.67;39.95
35716;BME280;21840;44.920;8.616;2023-03-23T09:43:22;100408.69;;;21.81;40.02
35716;BME280;21840;44.920;8.616;2023-03-23T09:46:19;100406.63;;;21.83;39.97
35716;BME280;21840;44.920;8.616;2023-03-23T09:48:53;100411.13;;;21.89;39.82
35716;BME280;21840;44.920;8.616;2023-03-23T09:51:40;100412.38;;;22.00;39.74
35716;BME280;21840;44.920;8.616;2023-03-23T09:56:47;100410.50;;;22.27;39.45
35716;BME280;21840;44.920;8.616;2023-03-23T10:01:49;100403.41;;;22.46;38.92
35716;BME280;21840;44.920;8.616;2023-03-23T10:04:32;100405.66;;;22.49;38.58
35716;BME280;21840;44.920;8.616;2023-03-23T10:07:00;100406.88;;;22.59;37.82
35716;BME280;21840;44.920;8.616;2023-03-23T10:09:31;100408.84;;;22.71;37.36
35716;BME280;21840;44.920;8.616;2023-03-23T10:14:57;100410.72;;;23.09;37.30
35716;BME280;21840;44.920;8.616;2023-03-23T10:17:37;100406.16;;;23.16;36.85
35716;BME280;21840;44.920;8.616;2023-03-23T10:23:33;100402.97;;;23.00;36.99
35716;BME280;21840;44.920;8.616;2023-03-23T10:26:17;100398.59;;;23.06;36.93
35716;BME280;21840;44.920;8.616;2023-03-23T10:28:51;100392.69;;;22.91;37.05
35716;BME280;21840;44.920;8.616;2023-03-23T10:31:35;100404.63;;;23.01;36.81
35716;BME280;21840;44.920;8.616;2023-03-23T10:34:10;100403.19;;;22.99;36.75
35716;BME280;21840;44.920;8.616;2023-03-23T10:36:48;100388.13;;;22.91;36.94
35716;BME280;21840;44.920;8.616;2023-03-23T10:39:21;100388.91;;;23.05;36.81
35716;BME280;21840;44.920;8.616;2023-03-23T10:41:47;100387.56;;;22.89;36.65
35716;BME280;21840;44.920;8.616;2023-03-23T10:44:20;100377.88;;;22.88;36.93
35716;BME280;21840;44.920;8.616;2023-03-23T10:49:25;100377.44;;;22.91;36.81
35716;BME280;21840;44.920;8.616;2023-03-23T10:52:56;100378.19;;;23.12;36.36
35716;BME280;21840;44.920;8.616;2023-03-23T10:57:29;100377.22;;;22.99;36.30
35716;BME280;21840;44.920;8.616;2023-03-23T11:00:20;100384.47;;;23.24;35.92
35716;BME280;21840;44.920;8.616;2023-03-23T11:03:06;100374.47;;;23.38;35.79
35716;BME280;21840;44.920;8.616;2023-03-23T11:05:44;100380.69;;;23.57;35.64
35716;BME280;21840;44.920;8.616;2023-03-23T11:08:32;100373.13;;;23.72;35.19
35716;BME280;21840;44.920;8.616;2023-03-23T11:11:14;100383.81;;;23.79;35.14
35716;BME280;21840;44.920;8.616;2023-03-23T11:13:49;100377.56;;;23.85;35.07
35716;BME280;21840;44.920;8.616;2023-03-23T11:16:33;100367.94;;;23.77;35.16
35716;BME280;21840;44.920;8.616;2023-03-23T11:19:11;100367.34;;;23.75;35.13
35716;BME280;21840;44.920;8.616;2023-03-23T11:21:39;100357.38;;;23.82;34.96
35716;BME280;21840;44.920;8.616;2023-03-23T11:24:05;100361.69;;;23.83;34.99
35716;BME280;21840;44.920;8.616;2023-03-23T11:26:33;100361.78;;;23.95;35.05
35716;BME280;21840;44.920;8.616;2023-03-23T11:29:08;100352.94;;;23.69;35.12
35716;BME280;21840;44.920;8.616;2023-03-23T11:31:39;100353.50;;;23.78;34.92
35716;BME280;21840;44.920;8.616;2023-03-23T11:34:34;100348.94;;;23.79;35.31
35716;BME280;21840;44.920;8.616;2023-03-23T11:37:03;100355.38;;;23.71;35.04
35716;BME280;21840;44.920;8.616;2023-03-23T11:39:49;100348.72;;;23.80;34.87
35716;BME280;21840;44.920;8.616;2023-03-23T11:42:44;100349.44;;;23.69;35.19
35716;BME280;21840;44.920;8.616;2023-03-23T11:45:21;100348.56;;;23.75;34.53
35716;BME280;21840;44.920;8.616;2023-03-23T11:57:38;100350.81;;;23.78;34.51
35716;BME280;21840;44.920;8.616;2023-03-23T12:00:23;100341.66;;;24.23;34.23
35716;BME280;21840;44.920;8.616;2023-03-23T12:03:07;100344.03;;;24.13;34.43
35716;BME280;21840;44.920;8.616;2023-03-23T12:06:01;100342.84;;;24.08;34.42
35716;BME280;21840;44.920;8.616;2023-03-23T12:08:38;100337.25;;;24.10;34.55
35716;BME280;21840;44.920;8.616;2023-03-23T12:14:16;100321.72;;;24.30;33.92
35716;BME280;21840;44.920;8.616;2023-03-23T12:33:51;100310.28;;;24.53;33.31
35716;BME280;21840;44.920;8.616;2023-03-23T12:37:08;100299.47;;;24.60;33.39
35716;BME280;21840;44.920;8.616;2023-03-23T12:47:40;100295.50;;;24.32;33.22
35716;BME280;21840;44.920;8.616;2023-03-23T12:52:47;100296.66;;;24.55;33.34
35716;BME280;21840;44.920;8.616;2023-03-23T12:58:15;100288.03;;;24.65;33.45
35716;BME280;21840;44.920;8.616;2023-03-23T13:00:56;100288.22;;;24.82;32.77
35716;BME280;21840;44.920;8.616;2023-03-23T13:03:55;100283.91;;;24.50;33.41
35716;BME280;21840;44.920;8.616;2023-03-23T13:09:18;100285.28;;;24.41;33.82
35716;BME280;21840;44.920;8.616;2023-03-23T13:11:47;100276.63;;;24.69;33.30
35716;BME280;21840;44.920;8.616;2023-03-23T13:17:27;100253.16;;;24.35;33.77
35716;BME280;21840;44.920;8.616;2023-03-23T13:19:59;100251.69;;;24.50;33.76
35716;BME280;21840;44.920;8.616;2023-03-23T13:22:46;100258.44;;;24.41;33.81
35716;BME280;21840;44.920;8.616;2023-03-23T13:25:21;100267.25;;;24.60;33.30
35716;BME280;21840;44.920;8.616;2023-03-23T13:28:00;100260.19;;;24.17;33.75
35716;BME280;21840;44.920;8.616;2023-03-23T13:30:27;100263.97;;;24.46;33.29
35716;BME280;21840;44.920;8.616;2023-03-23T13:33:05;100259.88;;;24.56;33.44
35716;BME280;21840;44.920;8.616;2023-03-23T13:35:36;100272.56;;;24.48;32.94
35716;BME280;21840;44.920;8.616;2023-03-23T13:38:16;100259.09;;;23.88;33.41
35716;BME280;21840;44.920;8.616;2023-03-23T13:40:43;100245.31;;;24.33;33.37
35716;BME280;21840;44.920;8.616;2023-03-23T13:43:10;100253.47;;;24.26;33.04
35716;BME280;21840;44.920;8.616;2023-03-23T13:45:47;100243.31;;;24.28;32.76
35716;BME280;21840;44.920;8.616;2023-03-23T13:48:23;100238.19;;;24.39;32.55
35716;BME280;21840;44.920;8.616;2023-03-23T13:50:58;100249.59;;;24.52;31.70
35716;BME280;21840;44.920;8.616;2023-03-23T13:53:44;100251.06;;;24.37;31.89
35716;BME280;21840;44.920;8.616;2023-03-23T13:56:39;100241.09;;;24.25;32.06
35716;BME280;21840;44.920;8.616;2023-03-23T14:01:52;100228.75;;;24.36;32.29
35716;BME280;21840;44.920;8.616;2023-03-23T14:04:19;100228.59;;;24.49;31.78
35716;BME280;21840;44.920;8.616;2023-03-23T14:06:48;100227.59;;;24.32;32.06
35716;BME280;21840;44.920;8.616;2023-03-23T14:11:58;100232.69;;;24.33;32.09
35716;BME280;21840;44.920;8.616;2023-03-23T14:14:33;100238.19;;;24.57;31.83
35716;BME280;21840;44.920;8.616;2023-03-23T14:17:30;100231.16;;;24.56;31.50
35716;BME280;21840;44.920;8.616;2023-03-23T14:19:56;100235.97;;;24.24;31.69
35716;BME280;21840;44.920;8.616;2023-03-23T14:22:35;100220.59;;;24.43;31.95
35716;BME280;21840;44.920;8.616;2023-03-23T14:25:16;100220.13;;;24.34;32.21
35716;BME280;21840;44.920;8.616;2023-03-23T14:27:43;100217.84;;;24.49;31.87
35716;BME280;21840;44.920;8.616;2023-03-23T14:30:17;100215.66;;;24.70;32.37
35716;BME280;21840;44.920;8.616;2023-03-23T14:32:43;100218.13;;;24.83;32.40
35716;BME280;21840;44.920;8.616;2023-03-23T14:35:23;100209.50;;;24.69;32.63
35716;BME280;21840;44.920;8.616;2023-03-23T14:37:49;100208.06;;;24.55;32.65
35716;BME280;21840;44.920;8.616;2023-03-23T14:40:16;100211.94;;;24.41;32.66
35716;BME280;21840;44.920;8.616;2023-03-23T14:42:43;100206.00;;;24.69;32.16
35716;BME280;21840;44.920;8.616;2023-03-23T14:45:17;100216.66;;;24.45;31.80
35716;BME280;21840;44.920;8.616;2023-03-23T14:47:56;100207.19;;;24.43;31.73
35716;BME280;21840;44.920;8.616;2023-03-23T14:52:51;100201.16;;;23.87;32.64
35716;BME280;21840;44.920;8.616;2023-03-23T14:55:19;100217.25;;;24.17;31.73
35716;BME280;21840;44.920;8.616;2023-03-23T14:57:49;100219.56;;;24.44;31.27
35716;BME280;21840;44.920;8.616;2023-03-23T15:00:19;100221.38;;;24.62;30.85
35716;BME280;21840;44.920;8.616;2023-03-23T15:02:49;100220.69;;;24.66;30.65
35716;BME280;21840;44.920;8.616;2023-03-23T15:05:22;100231.53;;;24.60;30.68
35716;BME280;21840;44.920;8.616;2023-03-23T15:07:54;100230.16;;;24.81;30.57